sensor_id;sensor_type;location;lat;lon;timestamp;P1;durP1;ratioP1;P2;durP2;ratioP2
13807;SDS011;40769;51.512;5.494;2023-06-14T00:00:44;4.05;;;3.75;;
13807;SDS011;40769;51.512;5.494;2023-06-14T00:03:10;3.97;;;3.67;;
13807;SDS011;40769;51.512;5.494;2023-06-14T00:05:37;4.40;;;4.10;;
13807;SDS011;40769;51.512;5.494;2023-06-14T00:08:08;5.40;;;4.90;;
13807;SDS011;40769;51.512;5.494;2023-06-14T00:10:38;5.38;;;4.97;;
13807;SDS011;40769;51.512;5.494;2023-06-14T00:13:06;5.50;;;5.00;;
13807;SDS011;40769;51.512;5.494;2023-06-14T00:15:32;4.75;;;4.35;;
13807;SDS011;40769;51.512;5.494;2023-06-14T00:17:59;4.88;;;4.50;;
13807;SDS011;40769;51.512;5.494;2023-06-14T00:20:28;4.78;;;4.10;;
13807;SDS011;40769;51.512;5.494;2023-06-14T00:22:55;4.45;;;4.13;;
13807;SDS011;40769;51.512;5.494;2023-06-14T00:25:22;4.93;;;4.53;;
13807;SDS011;40769;51.512;5.494;2023-06-14T00:27:51;4.85;;;4.45;;
13807;SDS011;40769;51.512;5.494;2023-06-14T00:30:17;5.90;;;5.40;;
13807;SDS011;40769;51.512;5.494;2023-06-14T00:32:44;5.00;;;4.60;;
13807;SDS011;40769;51.512;5.494;2023-06-14T00:35:10;6.03;;;5.43;;
13807;SDS011;40769;51.512;5.494;2023-06-14T00:37:36;5.03;;;4.63;;
13807;SDS011;40769;51.512;5.494;2023-06-14T00:40:03;5.82;;;5.43;;
13807;SDS011;40769;51.512;5.494;2023-06-14T00:42:29;5.57;;;4.95;;
13807;SDS011;40769;51.512;5.494;2023-06-14T00:44:55;4.35;;;4.05;;
13807;SDS011;40769;51.512;5.494;2023-06-14T00:47:21;4.20;;;3.90;;
13807;SDS011;40769;51.512;5.494;2023-06-14T00:49:47;4.25;;;3.95;;
13807;SDS011;40769;51.512;5.494;2023-06-14T00:52:14;4.95;;;4.55;;
13807;SDS011;40769;51.512;5.494;2023-06-14T00:54:41;5.57;;;4.43;;
13807;SDS011;40769;51.512;5.494;2023-06-14T00:57:07;4.28;;;3.92;;
13807;SDS011;40769;51.512;5.494;2023-06-14T00:59:38;5.07;;;4.68;;
13807;SDS011;40769;51.512;5.494;2023-06-14T01:02:08;4.05;;;3.75;;
13807;SDS011;40769;51.512;5.494;2023-06-14T01:04:33;5.15;;;4.65;;
13807;SDS011;40769;51.512;5.494;2023-06-14T01:07:02;4.28;;;3.92;;
13807;SDS011;40769;51.512;5.494;2023-06-14T01:12:31;3.78;;;3.47;;
13807;SDS011;40769;51.512;5.494;2023-06-14T01:15:09;3.95;;;3.63;;
13807;SDS011;40769;51.512;5.494;2023-06-14T01:17:37;4.60;;;4.10;;
13807;SDS011;40769;51.512;5.494;2023-06-14T01:20:06;3.83;;;3.42;;
13807;SDS011;40769;51.512;5.494;2023-06-14T01:22:36;4.15;;;3.47;;
13807;SDS011;40769;51.512;5.494;2023-06-14T01:25:02;3.92;;;3.63;;
13807;SDS011;40769;51.512;5.494;2023-06-14T01:27:30;4.03;;;3.67;;
13807;SDS011;40769;51.512;5.494;2023-06-14T01:29:57;3.67;;;3.40;;
13807;SDS011;40769;51.512;5.494;2023-06-14T01:32:26;3.50;;;3.20;;
13807;SDS011;40769;51.512;5.494;2023-06-14T01:34:52;3.70;;;3.40;;
13807;SDS011;40769;51.512;5.494;2023-06-14T01:37:19;4.65;;;4.28;;
13807;SDS011;40769;51.512;5.494;2023-06-14T01:39:45;4.43;;;4.03;;
13807;SDS011;40769;51.512;5.494;2023-06-14T01:42:12;3.83;;;3.53;;
13807;SDS011;40769;51.512;5.494;2023-06-14T01:44:40;4.05;;;3.75;;
13807;SDS011;40769;51.512;5.494;2023-06-14T01:47:07;3.70;;;3.40;;
13807;SDS011;40769;51.512;5.494;2023-06-14T01:49:33;3.53;;;3.20;;
13807;SDS011;40769;51.512;5.494;2023-06-14T01:52:00;3.78;;;3.47;;
13807;SDS011;40769;51.512;5.494;2023-06-14T01:54:34;3.88;;;3.58;;
13807;SDS011;40769;51.512;5.494;2023-06-14T01:57:02;4.10;;;3.80;;
13807;SDS011;40769;51.512;5.494;2023-06-14T01:59:28;4.15;;;3.75;;
13807;SDS011;40769;51.512;5.494;2023-06-14T02:01:56;4.32;;;3.92;;
13807;SDS011;40769;51.512;5.494;2023-06-14T02:04:21;4.13;;;3.83;;
13807;SDS011;40769;51.512;5.494;2023-06-14T02:06:47;4.82;;;4.38;;
13807;SDS011;40769;51.512;5.494;2023-06-14T02:09:15;4.97;;;4.07;;
13807;SDS011;40769;51.512;5.494;2023-06-14T02:11:42;4.43;;;4.03;;
13807;SDS011;40769;51.512;5.494;2023-06-14T02:14:08;5.15;;;4.40;;
13807;SDS011;40769;51.512;5.494;2023-06-14T02:16:36;3.70;;;3.40;;
13807;SDS011;40769;51.512;5.494;2023-06-14T02:19:03;4.43;;;4.03;;
13807;SDS011;40769;51.512;5.494;2023-06-14T02:21:32;5.70;;;4.35;;
13807;SDS011;40769;51.512;5.494;2023-06-14T02:23:57;4.10;;;3.80;;
13807;SDS011;40769;51.512;5.494;2023-06-14T02:26:23;4.60;;;4.03;;
13807;SDS011;40769;51.512;5.494;2023-06-14T02:28:49;3.65;;;3.35;;
13807;SDS011;40769;51.512;5.494;2023-06-14T02:31:23;4.97;;;4.00;;
13807;SDS011;40769;51.512;5.494;2023-06-14T02:33:49;4.25;;;3.85;;
13807;SDS011;40769;51.512;5.494;2023-06-14T02:36:18;4.20;;;3.85;;
13807;SDS011;40769;51.512;5.494;2023-06-14T02:38:43;3.63;;;3.33;;
13807;SDS011;40769;51.512;5.494;2023-06-14T02:41:10;3.65;;;3.35;;
13807;SDS011;40769;51.512;5.494;2023-06-14T02:43:35;4.18;;;3.45;;
13807;SDS011;40769;51.512;5.494;2023-06-14T02:46:04;4.00;;;3.70;;
13807;SDS011;40769;51.512;5.494;2023-06-14T02:48:30;3.65;;;3.35;;
13807;SDS011;40769;51.512;5.494;2023-06-14T02:50:56;3.45;;;3.10;;
13807;SDS011;40769;51.512;5.494;2023-06-14T02:53:22;4.20;;;3.35;;
13807;SDS011;40769;51.512;5.494;2023-06-14T02:55:47;3.90;;;3.10;;
13807;SDS011;40769;51.512;5.494;2023-06-14T02:58:13;3.20;;;3.00;;
13807;SDS011;40769;51.512;5.494;2023-06-14T03:00:39;3.17;;;2.92;;
13807;SDS011;40769;51.512;5.494;2023-06-14T03:03:08;4.20;;;3.30;;
13807;SDS011;40769;51.512;5.494;2023-06-14T03:05:44;3.50;;;3.20;;
13807;SDS011;40769;51.512;5.494;2023-06-14T03:08:16;3.40;;;3.10;;
13807;SDS011;40769;51.512;5.494;2023-06-14T03:10:44;3.42;;;3.22;;
13807;SDS011;40769;51.512;5.494;2023-06-14T03:13:12;3.15;;;2.85;;
13807;SDS011;40769;51.512;5.494;2023-06-14T03:15:39;2.80;;;2.60;;
13807;SDS011;40769;51.512;5.494;2023-06-14T03:18:10;3.10;;;2.83;;
13807;SDS011;40769;51.512;5.494;2023-06-14T03:20:37;2.90;;;2.70;;
13807;SDS011;40769;51.512;5.494;2023-06-14T03:23:02;3.10;;;2.90;;
13807;SDS011;40769;51.512;5.494;2023-06-14T03:25:29;3.38;;;2.60;;
13807;SDS011;40769;51.512;5.494;2023-06-14T03:27:55;2.88;;;2.67;;
13807;SDS011;40769;51.512;5.494;2023-06-14T03:30:21;2.97;;;2.78;;
13807;SDS011;40769;51.512;5.494;2023-06-14T03:32:47;3.10;;;2.85;;
13807;SDS011;40769;51.512;5.494;2023-06-14T03:35:12;3.03;;;2.83;;
13807;SDS011;40769;51.512;5.494;2023-06-14T03:37:45;3.58;;;3.28;;
13807;SDS011;40769;51.512;5.494;2023-06-14T03:40:12;3.40;;;3.10;;
13807;SDS011;40769;51.512;5.494;2023-06-14T03:42:39;5.05;;;2.63;;
13807;SDS011;40769;51.512;5.494;2023-06-14T03:45:05;2.97;;;2.78;;
13807;SDS011;40769;51.512;5.494;2023-06-14T03:47:32;4.03;;;3.45;;
13807;SDS011;40769;51.512;5.494;2023-06-14T03:49:58;3.45;;;3.15;;
13807;SDS011;40769;51.512;5.494;2023-06-14T03:52:23;4.70;;;3.47;;
13807;SDS011;40769;51.512;5.494;2023-06-14T03:54:50;4.10;;;3.70;;
13807;SDS011;40769;51.512;5.494;2023-06-14T03:57:16;4.22;;;3.30;;
13807;SDS011;40769;51.512;5.494;2023-06-14T03:59:42;3.25;;;3.00;;
13807;SDS011;40769;51.512;5.494;2023-06-14T04:02:08;3.10;;;2.85;;
13807;SDS011;40769;51.512;5.494;2023-06-14T04:04:40;3.13;;;2.92;;
13807;SDS011;40769;51.512;5.494;2023-06-14T04:07:12;3.22;;;2.92;;
13807;SDS011;40769;51.512;5.494;2023-06-14T04:09:39;3.45;;;2.80;;
13807;SDS011;40769;51.512;5.494;2023-06-14T04:12:05;2.85;;;2.60;;
13807;SDS011;40769;51.512;5.494;2023-06-14T04:14:33;3.85;;;3.17;;
13807;SDS011;40769;51.512;5.494;2023-06-14T04:16:59;3.90;;;3.08;;
13807;SDS011;40769;51.512;5.494;2023-06-14T04:19:26;3.28;;;3.00;;
13807;SDS011;40769;51.512;5.494;2023-06-14T04:21:51;3.40;;;3.17;;
13807;SDS011;40769;51.512;5.494;2023-06-14T04:24:17;4.55;;;3.08;;
13807;SDS011;40769;51.512;5.494;2023-06-14T04:26:43;4.50;;;3.15;;
13807;SDS011;40769;51.512;5.494;2023-06-14T04:29:10;3.85;;;3.40;;
13807;SDS011;40769;51.512;5.494;2023-06-14T04:31:41;3.53;;;3.22;;
13807;SDS011;40769;51.512;5.494;2023-06-14T04:34:07;4.18;;;3.40;;
13807;SDS011;40769;51.512;5.494;2023-06-14T04:36:33;3.67;;;3.38;;
13807;SDS011;40769;51.512;5.494;2023-06-14T04:39:02;3.95;;;3.65;;
13807;SDS011;40769;51.512;5.494;2023-06-14T04:41:32;4.82;;;3.35;;
13807;SDS011;40769;51.512;5.494;2023-06-14T04:43:58;3.28;;;2.97;;
13807;SDS011;40769;51.512;5.494;2023-06-14T04:46:26;3.72;;;3.17;;
13807;SDS011;40769;51.512;5.494;2023-06-14T04:48:53;3.47;;;3.17;;
13807;SDS011;40769;51.512;5.494;2023-06-14T04:51:19;5.38;;;3.58;;
13807;SDS011;40769;51.512;5.494;2023-06-14T04:53:47;3.53;;;3.22;;
13807;SDS011;40769;51.512;5.494;2023-06-14T04:56:14;3.50;;;3.20;;
13807;SDS011;40769;51.512;5.494;2023-06-14T04:58:40;4.50;;;3.20;;
13807;SDS011;40769;51.512;5.494;2023-06-14T05:01:05;4.28;;;3.53;;
13807;SDS011;40769;51.512;5.494;2023-06-14T05:03:34;3.38;;;3.08;;
13807;SDS011;40769;51.512;5.494;2023-06-14T05:06:00;3.35;;;3.05;;
13807;SDS011;40769;51.512;5.494;2023-06-14T05:08:25;4.88;;;3.92;;
13807;SDS011;40769;51.512;5.494;2023-06-14T05:10:52;4.18;;;3.70;;
13807;SDS011;40769;51.512;5.494;2023-06-14T05:13:18;5.93;;;3.58;;
13807;SDS011;40769;51.512;5.494;2023-06-14T05:15:44;3.20;;;2.90;;
13807;SDS011;40769;51.512;5.494;2023-06-14T05:18:10;4.05;;;3.72;;
13807;SDS011;40769;51.512;5.494;2023-06-14T05:20:35;3.72;;;3.25;;
13807;SDS011;40769;51.512;5.494;2023-06-14T05:23:05;4.00;;;3.65;;
13807;SDS011;40769;51.512;5.494;2023-06-14T05:25:31;3.67;;;3.38;;
13807;SDS011;40769;51.512;5.494;2023-06-14T05:27:56;3.85;;;3.17;;
13807;SDS011;40769;51.512;5.494;2023-06-14T05:30:22;5.63;;;3.75;;
13807;SDS011;40769;51.512;5.494;2023-06-14T05:32:47;4.18;;;3.78;;
13807;SDS011;40769;51.512;5.494;2023-06-14T05:35:13;5.70;;;3.80;;
13807;SDS011;40769;51.512;5.494;2023-06-14T05:37:39;4.40;;;3.67;;
13807;SDS011;40769;51.512;5.494;2023-06-14T05:40:05;3.95;;;3.65;;
13807;SDS011;40769;51.512;5.494;2023-06-14T05:42:32;3.58;;;3.10;;
13807;SDS011;40769;51.512;5.494;2023-06-14T05:45:01;4.03;;;3.25;;
13807;SDS011;40769;51.512;5.494;2023-06-14T05:47:26;3.75;;;3.42;;
13807;SDS011;40769;51.512;5.494;2023-06-14T05:49:52;5.15;;;3.58;;
13807;SDS011;40769;51.512;5.494;2023-06-14T05:52:19;3.25;;;3.05;;
13807;SDS011;40769;51.512;5.494;2023-06-14T05:54:45;3.70;;;3.40;;
13807;SDS011;40769;51.512;5.494;2023-06-14T05:57:11;3.63;;;3.33;;
13807;SDS011;40769;51.512;5.494;2023-06-14T05:59:37;3.50;;;3.15;;
13807;SDS011;40769;51.512;5.494;2023-06-14T06:02:02;3.75;;;3.33;;
13807;SDS011;40769;51.512;5.494;2023-06-14T06:04:28;5.43;;;3.13;;
13807;SDS011;40769;51.512;5.494;2023-06-14T06:06:54;5.25;;;3.00;;
13807;SDS011;40769;51.512;5.494;2023-06-14T06:09:19;3.38;;;2.80;;
13807;SDS011;40769;51.512;5.494;2023-06-14T06:11:45;3.45;;;3.15;;
13807;SDS011;40769;51.512;5.494;2023-06-14T06:14:11;3.13;;;2.83;;
13807;SDS011;40769;51.512;5.494;2023-06-14T06:16:36;4.70;;;3.03;;
13807;SDS011;40769;51.512;5.494;2023-06-14T06:19:02;3.08;;;2.83;;
13807;SDS011;40769;51.512;5.494;2023-06-14T06:21:27;3.25;;;2.90;;
13807;SDS011;40769;51.512;5.494;2023-06-14T06:23:53;3.60;;;3.30;;
13807;SDS011;40769;51.512;5.494;2023-06-14T06:26:19;4.18;;;3.05;;
13807;SDS011;40769;51.512;5.494;2023-06-14T06:28:46;3.67;;;3.38;;
13807;SDS011;40769;51.512;5.494;2023-06-14T06:31:12;3.97;;;2.92;;
13807;SDS011;40769;51.512;5.494;2023-06-14T06:33:37;2.85;;;2.65;;
13807;SDS011;40769;51.512;5.494;2023-06-14T06:36:04;3.38;;;2.70;;
13807;SDS011;40769;51.512;5.494;2023-06-14T06:38:30;3.78;;;2.72;;
13807;SDS011;40769;51.512;5.494;2023-06-14T06:40:59;3.33;;;2.75;;
13807;SDS011;40769;51.512;5.494;2023-06-14T06:43:24;4.47;;;3.10;;
13807;SDS011;40769;51.512;5.494;2023-06-14T06:45:50;3.88;;;3.08;;
13807;SDS011;40769;51.512;5.494;2023-06-14T06:48:16;3.78;;;2.83;;
13807;SDS011;40769;51.512;5.494;2023-06-14T06:50:41;4.88;;;2.83;;
13807;SDS011;40769;51.512;5.494;2023-06-14T06:53:07;3.15;;;2.90;;
13807;SDS011;40769;51.512;5.494;2023-06-14T06:55:32;3.15;;;2.40;;
13807;SDS011;40769;51.512;5.494;2023-06-14T06:57:58;3.20;;;2.60;;
13807;SDS011;40769;51.512;5.494;2023-06-14T07:00:25;4.50;;;2.70;;
13807;SDS011;40769;51.512;5.494;2023-06-14T07:02:51;4.75;;;2.90;;
13807;SDS011;40769;51.512;5.494;2023-06-14T07:05:17;3.10;;;2.80;;
13807;SDS011;40769;51.512;5.494;2023-06-14T07:07:43;6.07;;;2.90;;
13807;SDS011;40769;51.512;5.494;2023-06-14T07:10:09;3.13;;;2.83;;
13807;SDS011;40769;51.512;5.494;2023-06-14T07:12:35;4.95;;;2.25;;
13807;SDS011;40769;51.512;5.494;2023-06-14T07:15:04;4.15;;;2.70;;
13807;SDS011;40769;51.512;5.494;2023-06-14T07:17:31;4.45;;;2.58;;
13807;SDS011;40769;51.512;5.494;2023-06-14T07:19:57;4.75;;;2.80;;
13807;SDS011;40769;51.512;5.494;2023-06-14T07:22:27;4.97;;;3.03;;
13807;SDS011;40769;51.512;5.494;2023-06-14T07:25:12;3.58;;;2.63;;
13807;SDS011;40769;51.512;5.494;2023-06-14T07:27:39;2.72;;;2.50;;
13807;SDS011;40769;51.512;5.494;2023-06-14T07:30:08;4.05;;;2.50;;
13807;SDS011;40769;51.512;5.494;2023-06-14T07:32:34;3.05;;;2.35;;
13807;SDS011;40769;51.512;5.494;2023-06-14T07:35:00;2.65;;;2.35;;
13807;SDS011;40769;51.512;5.494;2023-06-14T07:37:26;2.85;;;2.47;;
13807;SDS011;40769;51.512;5.494;2023-06-14T07:39:52;4.70;;;2.65;;
13807;SDS011;40769;51.512;5.494;2023-06-14T07:42:17;4.65;;;2.55;;
13807;SDS011;40769;51.512;5.494;2023-06-14T07:44:43;3.08;;;2.28;;
13807;SDS011;40769;51.512;5.494;2023-06-14T07:47:08;2.65;;;2.38;;
13807;SDS011;40769;51.512;5.494;2023-06-14T07:49:34;2.58;;;2.38;;
13807;SDS011;40769;51.512;5.494;2023-06-14T07:52:00;6.25;;;2.85;;
13807;SDS011;40769;51.512;5.494;2023-06-14T07:54:25;2.45;;;2.25;;
13807;SDS011;40769;51.512;5.494;2023-06-14T07:56:51;2.88;;;2.63;;
13807;SDS011;40769;51.512;5.494;2023-06-14T07:59:17;3.72;;;2.50;;
13807;SDS011;40769;51.512;5.494;2023-06-14T08:01:43;4.35;;;2.40;;
13807;SDS011;40769;51.512;5.494;2023-06-14T08:04:12;2.83;;;2.13;;
13807;SDS011;40769;51.512;5.494;2023-06-14T08:06:38;3.33;;;2.30;;
13807;SDS011;40769;51.512;5.494;2023-06-14T08:09:04;3.72;;;2.10;;
13807;SDS011;40769;51.512;5.494;2023-06-14T08:11:30;2.90;;;2.25;;
13807;SDS011;40769;51.512;5.494;2023-06-14T08:13:56;3.60;;;2.20;;
13807;SDS011;40769;51.512;5.494;2023-06-14T08:16:22;2.67;;;2.47;;
13807;SDS011;40769;51.512;5.494;2023-06-14T08:18:48;2.75;;;2.20;;
13807;SDS011;40769;51.512;5.494;2023-06-14T08:21:14;3.05;;;2.30;;
13807;SDS011;40769;51.512;5.494;2023-06-14T08:23:40;3.28;;;1.85;;
13807;SDS011;40769;51.512;5.494;2023-06-14T08:26:07;2.63;;;2.20;;
13807;SDS011;40769;51.512;5.494;2023-06-14T08:28:40;2.47;;;2.05;;
13807;SDS011;40769;51.512;5.494;2023-06-14T08:31:05;4.38;;;2.05;;
13807;SDS011;40769;51.512;5.494;2023-06-14T08:33:31;3.05;;;2.25;;
13807;SDS011;40769;51.512;5.494;2023-06-14T08:35:58;2.10;;;1.85;;
13807;SDS011;40769;51.512;5.494;2023-06-14T08:38:23;5.20;;;2.38;;
13807;SDS011;40769;51.512;5.494;2023-06-14T08:40:50;2.28;;;2.08;;
13807;SDS011;40769;51.512;5.494;2023-06-14T08:43:17;2.50;;;2.17;;
13807;SDS011;40769;51.512;5.494;2023-06-14T08:45:44;2.58;;;1.85;;
13807;SDS011;40769;51.512;5.494;2023-06-14T08:48:13;2.38;;;2.08;;
13807;SDS011;40769;51.512;5.494;2023-06-14T08:50:42;2.15;;;1.90;;
13807;SDS011;40769;51.512;5.494;2023-06-14T08:53:11;2.50;;;1.73;;
13807;SDS011;40769;51.512;5.494;2023-06-14T08:55:45;2.20;;;1.85;;
13807;SDS011;40769;51.512;5.494;2023-06-14T08:58:10;1.50;;;1.40;;
13807;SDS011;40769;51.512;5.494;2023-06-14T09:00:40;3.33;;;1.80;;
13807;SDS011;40769;51.512;5.494;2023-06-14T09:03:07;1.90;;;1.70;;
13807;SDS011;40769;51.512;5.494;2023-06-14T09:05:38;4.85;;;1.92;;
13807;SDS011;40769;51.512;5.494;2023-06-14T09:08:04;1.83;;;1.65;;
13807;SDS011;40769;51.512;5.494;2023-06-14T09:10:30;3.30;;;1.63;;
13807;SDS011;40769;51.512;5.494;2023-06-14T09:13:02;1.60;;;1.50;;
13807;SDS011;40769;51.512;5.494;2023-06-14T09:15:28;2.63;;;1.75;;
13807;SDS011;40769;51.512;5.494;2023-06-14T09:17:54;2.72;;;1.75;;
13807;SDS011;40769;51.512;5.494;2023-06-14T09:20:20;1.73;;;1.45;;
13807;SDS011;40769;51.512;5.494;2023-06-14T09:22:48;2.95;;;1.25;;
13807;SDS011;40769;51.512;5.494;2023-06-14T09:25:14;1.50;;;1.40;;
13807;SDS011;40769;51.512;5.494;2023-06-14T09:27:40;1.23;;;1.13;;
13807;SDS011;40769;51.512;5.494;2023-06-14T09:30:08;1.27;;;1.17;;
13807;SDS011;40769;51.512;5.494;2023-06-14T09:32:38;1.70;;;1.20;;
13807;SDS011;40769;51.512;5.494;2023-06-14T09:35:08;2.15;;;1.20;;
13807;SDS011;40769;51.512;5.494;2023-06-14T09:37:34;1.35;;;1.23;;
13807;SDS011;40769;51.512;5.494;2023-06-14T09:40:02;1.40;;;1.30;;
13807;SDS011;40769;51.512;5.494;2023-06-14T09:42:29;7.57;;;1.27;;
13807;SDS011;40769;51.512;5.494;2023-06-14T09:44:55;2.83;;;1.27;;
13807;SDS011;40769;51.512;5.494;2023-06-14T09:47:22;2.15;;;1.10;;
13807;SDS011;40769;51.512;5.494;2023-06-14T09:49:49;2.65;;;1.20;;
13807;SDS011;40769;51.512;5.494;2023-06-14T09:52:19;1.42;;;1.33;;
13807;SDS011;40769;51.512;5.494;2023-06-14T09:54:47;4.43;;;1.20;;
13807;SDS011;40769;51.512;5.494;2023-06-14T09:57:17;1.30;;;1.20;;
13807;SDS011;40769;51.512;5.494;2023-06-14T09:59:47;1.20;;;1.10;;
13807;SDS011;40769;51.512;5.494;2023-06-14T10:05:14;1.30;;;1.20;;
13807;SDS011;40769;51.512;5.494;2023-06-14T10:10:11;1.55;;;1.30;;
13807;SDS011;40769;51.512;5.494;2023-06-14T10:12:38;1.45;;;1.35;;
13807;SDS011;40769;51.512;5.494;2023-06-14T10:15:03;3.13;;;1.67;;
13807;SDS011;40769;51.512;5.494;2023-06-14T10:17:39;1.40;;;1.30;;
13807;SDS011;40769;51.512;5.494;2023-06-14T10:22:47;1.83;;;1.58;;
13807;SDS011;40769;51.512;5.494;2023-06-14T10:25:30;2.10;;;1.40;;
13807;SDS011;40769;51.512;5.494;2023-06-14T10:28:05;2.58;;;1.70;;
13807;SDS011;40769;51.512;5.494;2023-06-14T10:30:40;1.58;;;1.30;;
13807;SDS011;40769;51.512;5.494;2023-06-14T10:33:34;1.85;;;1.70;;
13807;SDS011;40769;51.512;5.494;2023-06-14T10:41:26;1.60;;;1.50;;
13807;SDS011;40769;51.512;5.494;2023-06-14T10:46:37;2.15;;;1.30;;
13807;SDS011;40769;51.512;5.494;2023-06-14T10:49:04;1.50;;;1.40;;
13807;SDS011;40769;51.512;5.494;2023-06-14T10:51:37;1.60;;;1.50;;
13807;SDS011;40769;51.512;5.494;2023-06-14T10:54:13;1.50;;;1.35;;
13807;SDS011;40769;51.512;5.494;2023-06-14T10:56:50;2.60;;;1.20;;
13807;SDS011;40769;51.512;5.494;2023-06-14T10:59:17;3.10;;;1.40;;
13807;SDS011;40769;51.512;5.494;2023-06-14T11:04:46;2.05;;;1.40;;
13807;SDS011;40769;51.512;5.494;2023-06-14T11:10:39;1.75;;;1.30;;
13807;SDS011;40769;51.512;5.494;2023-06-14T11:13:08;1.50;;;1.40;;
13807;SDS011;40769;51.512;5.494;2023-06-14T11:15:37;1.85;;;1.75;;
13807;SDS011;40769;51.512;5.494;2023-06-14T11:18:06;1.80;;;1.60;;
13807;SDS011;40769;51.512;5.494;2023-06-14T11:20:35;3.35;;;1.67;;
13807;SDS011;40769;51.512;5.494;2023-06-14T11:23:01;1.50;;;1.38;;
13807;SDS011;40769;51.512;5.494;2023-06-14T11:25:27;1.80;;;1.35;;
13807;SDS011;40769;51.512;5.494;2023-06-14T11:27:53;1.50;;;1.40;;
13807;SDS011;40769;51.512;5.494;2023-06-14T11:30:19;2.33;;;1.50;;
13807;SDS011;40769;51.512;5.494;2023-06-14T11:32:48;1.38;;;1.27;;
13807;SDS011;40769;51.512;5.494;2023-06-14T11:35:15;2.03;;;1.45;;
13807;SDS011;40769;51.512;5.494;2023-06-14T11:37:42;1.40;;;1.30;;
13807;SDS011;40769;51.512;5.494;2023-06-14T11:40:09;2.38;;;1.45;;
13807;SDS011;40769;51.512;5.494;2023-06-14T11:42:37;3.95;;;1.50;;
13807;SDS011;40769;51.512;5.494;2023-06-14T11:45:03;1.60;;;1.50;;
13807;SDS011;40769;51.512;5.494;2023-06-14T11:47:32;1.25;;;1.15;;
13807;SDS011;40769;51.512;5.494;2023-06-14T11:50:02;1.75;;;1.63;;
13807;SDS011;40769;51.512;5.494;2023-06-14T11:52:28;1.65;;;1.40;;
13807;SDS011;40769;51.512;5.494;2023-06-14T11:54:55;1.40;;;1.30;;
13807;SDS011;40769;51.512;5.494;2023-06-14T11:57:22;1.88;;;1.42;;
13807;SDS011;40769;51.512;5.494;2023-06-14T11:59:48;1.60;;;1.50;;
13807;SDS011;40769;51.512;5.494;2023-06-14T12:02:15;1.60;;;1.50;;
13807;SDS011;40769;51.512;5.494;2023-06-14T12:04:46;2.60;;;1.30;;
13807;SDS011;40769;51.512;5.494;2023-06-14T12:07:16;1.42;;;1.33;;
13807;SDS011;40769;51.512;5.494;2023-06-14T12:12:22;2.45;;;1.25;;
13807;SDS011;40769;51.512;5.494;2023-06-14T12:14:55;1.92;;;1.48;;
13807;SDS011;40769;51.512;5.494;2023-06-14T12:17:21;2.58;;;1.33;;
13807;SDS011;40769;51.512;5.494;2023-06-14T12:19:48;2.47;;;1.50;;
13807;SDS011;40769;51.512;5.494;2023-06-14T12:22:15;1.45;;;1.33;;
13807;SDS011;40769;51.512;5.494;2023-06-14T12:24:45;1.50;;;1.40;;
13807;SDS011;40769;51.512;5.494;2023-06-14T12:27:11;1.60;;;1.50;;
13807;SDS011;40769;51.512;5.494;2023-06-14T12:29:40;1.70;;;1.60;;
13807;SDS011;40769;51.512;5.494;2023-06-14T12:32:09;2.95;;;1.38;;
13807;SDS011;40769;51.512;5.494;2023-06-14T12:34:35;1.55;;;1.45;;
13807;SDS011;40769;51.512;5.494;2023-06-14T12:37:01;1.73;;;1.50;;
13807;SDS011;40769;51.512;5.494;2023-06-14T12:39:29;1.63;;;1.20;;
13807;SDS011;40769;51.512;5.494;2023-06-14T12:41:56;1.65;;;1.55;;
13807;SDS011;40769;51.512;5.494;2023-06-14T12:44:22;1.60;;;1.50;;
13807;SDS011;40769;51.512;5.494;2023-06-14T12:46:48;1.67;;;1.45;;
13807;SDS011;40769;51.512;5.494;2023-06-14T12:49:16;2.40;;;1.25;;
13807;SDS011;40769;51.512;5.494;2023-06-14T12:51:42;1.65;;;1.55;;
13807;SDS011;40769;51.512;5.494;2023-06-14T12:54:07;1.77;;;1.30;;
13807;SDS011;40769;51.512;5.494;2023-06-14T12:56:33;1.40;;;1.30;;
13807;SDS011;40769;51.512;5.494;2023-06-14T12:58:59;2.33;;;1.33;;
13807;SDS011;40769;51.512;5.494;2023-06-14T13:01:25;1.60;;;1.50;;
13807;SDS011;40769;51.512;5.494;2023-06-14T13:03:54;1.20;;;1.10;;
13807;SDS011;40769;51.512;5.494;2023-06-14T13:06:22;2.40;;;1.30;;
13807;SDS011;40769;51.512;5.494;2023-06-14T13:08:49;3.28;;;1.38;;
13807;SDS011;40769;51.512;5.494;2023-06-14T13:11:15;1.33;;;1.23;;
13807;SDS011;40769;51.512;5.494;2023-06-14T13:13:41;1.20;;;1.10;;
13807;SDS011;40769;51.512;5.494;2023-06-14T13:16:07;1.77;;;1.67;;
13807;SDS011;40769;51.512;5.494;2023-06-14T13:18:32;1.40;;;1.17;;
13807;SDS011;40769;51.512;5.494;2023-06-14T13:21:01;1.30;;;1.20;;
13807;SDS011;40769;51.512;5.494;2023-06-14T13:23:27;3.05;;;1.27;;
13807;SDS011;40769;51.512;5.494;2023-06-14T13:25:53;1.42;;;1.33;;
13807;SDS011;40769;51.512;5.494;2023-06-14T13:28:18;1.40;;;1.30;;
13807;SDS011;40769;51.512;5.494;2023-06-14T13:30:45;1.38;;;1.27;;
13807;SDS011;40769;51.512;5.494;2023-06-14T13:33:11;1.67;;;1.40;;
13807;SDS011;40769;51.512;5.494;2023-06-14T13:35:37;1.50;;;1.35;;
13807;SDS011;40769;51.512;5.494;2023-06-14T13:38:03;1.52;;;1.42;;
13807;SDS011;40769;51.512;5.494;2023-06-14T13:40:29;1.63;;;1.48;;
13807;SDS011;40769;51.512;5.494;2023-06-14T13:42:54;1.40;;;1.30;;
13807;SDS011;40769;51.512;5.494;2023-06-14T13:45:20;1.60;;;1.40;;
13807;SDS011;40769;51.512;5.494;2023-06-14T13:47:46;1.83;;;1.60;;
13807;SDS011;40769;51.512;5.494;2023-06-14T13:50:13;2.75;;;1.42;;
13807;SDS011;40769;51.512;5.494;2023-06-14T13:52:39;2.03;;;1.48;;
13807;SDS011;40769;51.512;5.494;2023-06-14T13:55:05;2.17;;;1.35;;
13807;SDS011;40769;51.512;5.494;2023-06-14T13:57:31;1.52;;;1.42;;
13807;SDS011;40769;51.512;5.494;2023-06-14T13:59:57;1.10;;;1.00;;
13807;SDS011;40769;51.512;5.494;2023-06-14T14:02:26;1.75;;;1.20;;
13807;SDS011;40769;51.512;5.494;2023-06-14T14:04:54;2.15;;;1.73;;
13807;SDS011;40769;51.512;5.494;2023-06-14T14:07:20;1.20;;;1.10;;
13807;SDS011;40769;51.512;5.494;2023-06-14T14:09:47;2.95;;;1.20;;
13807;SDS011;40769;51.512;5.494;2023-06-14T14:12:12;2.40;;;1.27;;
13807;SDS011;40769;51.512;5.494;2023-06-14T14:14:39;1.38;;;1.27;;
13807;SDS011;40769;51.512;5.494;2023-06-14T14:17:05;1.20;;;1.10;;
13807;SDS011;40769;51.512;5.494;2023-06-14T14:19:31;1.35;;;0.90;;
13807;SDS011;40769;51.512;5.494;2023-06-14T14:21:58;2.42;;;0.93;;
13807;SDS011;40769;51.512;5.494;2023-06-14T14:24:23;1.20;;;1.10;;
13807;SDS011;40769;51.512;5.494;2023-06-14T14:26:49;1.08;;;1.08;;
13807;SDS011;40769;51.512;5.494;2023-06-14T14:29:18;1.92;;;1.02;;
13807;SDS011;40769;51.512;5.494;2023-06-14T14:31:44;1.08;;;0.98;;
13807;SDS011;40769;51.512;5.494;2023-06-14T14:34:10;1.33;;;1.23;;
13807;SDS011;40769;51.512;5.494;2023-06-14T14:36:36;1.27;;;0.85;;
13807;SDS011;40769;51.512;5.494;2023-06-14T14:39:03;1.33;;;0.88;;
13807;SDS011;40769;51.512;5.494;2023-06-14T14:41:29;1.85;;;1.10;;
13807;SDS011;40769;51.512;5.494;2023-06-14T14:43:55;1.70;;;1.05;;
13807;SDS011;40769;51.512;5.494;2023-06-14T14:46:21;1.02;;;0.93;;
13807;SDS011;40769;51.512;5.494;2023-06-14T14:48:46;0.88;;;0.82;;
13807;SDS011;40769;51.512;5.494;2023-06-14T14:51:12;0.80;;;0.80;;
13807;SDS011;40769;51.512;5.494;2023-06-14T14:53:38;1.17;;;1.08;;
13807;SDS011;40769;51.512;5.494;2023-06-14T14:56:12;1.00;;;1.00;;
13807;SDS011;40769;51.512;5.494;2023-06-14T14:58:38;1.08;;;0.98;;
13807;SDS011;40769;51.512;5.494;2023-06-14T15:01:04;1.88;;;1.00;;
13807;SDS011;40769;51.512;5.494;2023-06-14T15:03:31;1.05;;;0.95;;
13807;SDS011;40769;51.512;5.494;2023-06-14T15:05:56;2.45;;;1.10;;
13807;SDS011;40769;51.512;5.494;2023-06-14T15:08:22;2.55;;;1.25;;
13807;SDS011;40769;51.512;5.494;2023-06-14T15:10:51;1.30;;;1.20;;
13807;SDS011;40769;51.512;5.494;2023-06-14T15:13:16;1.13;;;1.08;;
13807;SDS011;40769;51.512;5.494;2023-06-14T15:15:42;1.45;;;1.08;;